sensor_id;sensor_type;location;lat;lon;timestamp;P1;durP1;ratioP1;P2;durP2;ratioP2
17741;SDS011;8993;51.822;-2.268;2023-09-19T00:03:57;13.82;;;1.66;;
17741;SDS011;8993;51.822;-2.268;2023-09-19T00:09:01;14.20;;;1.70;;
17741;SDS011;8993;51.822;-2.268;2023-09-19T00:14:05;14.73;;;1.73;;
17741;SDS011;8993;51.822;-2.268;2023-09-19T00:19:09;15.94;;;1.92;;
17741;SDS011;8993;51.822;-2.268;2023-09-19T00:24:13;16.01;;;2.03;;
17741;SDS011;8993;51.822;-2.268;2023-09-19T00:29:17;12.66;;;1.79;;
17741;SDS011;8993;51.822;-2.268;2023-09-19T00:34:20;16.24;;;1.79;;
17741;SDS011;8993;51.822;-2.268;2023-09-19T00:39:24;17.34;;;2.00;;
17741;SDS011;8993;51.822;-2.268;2023-09-19T00:44:28;13.15;;;1.69;;
17741;SDS011;8993;51.822;-2.268;2023-09-19T00:49:33;13.94;;;1.70;;
17741;SDS011;8993;51.822;-2.268;2023-09-19T00:54:37;14.58;;;1.84;;
17741;SDS011;8993;51.822;-2.268;2023-09-19T00:59:41;17.67;;;2.04;;
17741;SDS011;8993;51.822;-2.268;2023-09-19T01:04:46;15.44;;;1.81;;
17741;SDS011;8993;51.822;-2.268;2023-09-19T01:09:50;18.56;;;2.14;;
17741;SDS011;8993;51.822;-2.268;2023-09-19T01:14:55;19.71;;;2.21;;
17741;SDS011;8993;51.822;-2.268;2023-09-19T01:20:03;18.11;;;2.18;;
17741;SDS011;8993;51.822;-2.268;2023-09-19T01:25:10;19.89;;;2.39;;
17741;SDS011;8993;51.822;-2.268;2023-09-19T01:30:08;17.88;;;2.33;;
17741;SDS011;8993;51.822;-2.268;2023-09-19T01:35:11;19.15;;;2.09;;
17741;SDS011;8993;51.822;-2.268;2023-09-19T01:40:17;18.98;;;2.43;;
17741;SDS011;8993;51.822;-2.268;2023-09-19T01:45:26;26.24;;;2.63;;
17741;SDS011;8993;51.822;-2.268;2023-09-19T01:50:27;23.20;;;2.78;;
17741;SDS011;8993;51.822;-2.268;2023-09-19T01:55:28;26.07;;;3.14;;
17741;SDS011;8993;51.822;-2.268;2023-09-19T02:00:32;19.95;;;2.57;;
17741;SDS011;8993;51.822;-2.268;2023-09-19T02:05:35;24.66;;;3.00;;
17741;SDS011;8993;51.822;-2.268;2023-09-19T02:10:39;21.31;;;2.81;;
17741;SDS011;8993;51.822;-2.268;2023-09-19T02:15:43;23.06;;;2.78;;
17741;SDS011;8993;51.822;-2.268;2023-09-19T02:20:47;18.71;;;2.30;;
17741;SDS011;8993;51.822;-2.268;2023-09-19T02:25:51;21.00;;;2.28;;
17741;SDS011;8993;51.822;-2.268;2023-09-19T02:30:55;23.90;;;2.63;;
17741;SDS011;8993;51.822;-2.268;2023-09-19T02:35:59;16.98;;;2.35;;
17741;SDS011;8993;51.822;-2.268;2023-09-19T02:41:03;20.37;;;2.61;;
17741;SDS011;8993;51.822;-2.268;2023-09-19T02:46:07;18.41;;;2.33;;
17741;SDS011;8993;51.822;-2.268;2023-09-19T02:51:10;19.46;;;2.34;;
17741;SDS011;8993;51.822;-2.268;2023-09-19T02:56:14;22.45;;;2.40;;
17741;SDS011;8993;51.822;-2.268;2023-09-19T03:01:18;23.55;;;2.35;;
17741;SDS011;8993;51.822;-2.268;2023-09-19T03:06:22;22.34;;;2.61;;
17741;SDS011;8993;51.822;-2.268;2023-09-19T03:11:26;21.32;;;2.41;;
17741;SDS011;8993;51.822;-2.268;2023-09-19T03:16:30;19.42;;;2.34;;
17741;SDS011;8993;51.822;-2.268;2023-09-19T03:21:34;17.19;;;2.05;;
17741;SDS011;8993;51.822;-2.268;2023-09-19T03:26:38;20.64;;;2.49;;
17741;SDS011;8993;51.822;-2.268;2023-09-19T03:31:42;18.85;;;2.15;;
17741;SDS011;8993;51.822;-2.268;2023-09-19T03:36:46;20.00;;;2.03;;
17741;SDS011;8993;51.822;-2.268;2023-09-19T03:41:49;21.54;;;2.33;;
17741;SDS011;8993;51.822;-2.268;2023-09-19T03:51:53;20.82;;;2.10;;
17741;SDS011;8993;51.822;-2.268;2023-09-19T03:56:57;18.18;;;2.05;;
17741;SDS011;8993;51.822;-2.268;2023-09-19T04:02:01;17.71;;;2.06;;
17741;SDS011;8993;51.822;-2.268;2023-09-19T04:07:05;18.36;;;1.72;;
17741;SDS011;8993;51.822;-2.268;2023-09-19T04:12:09;19.87;;;1.86;;
17741;SDS011;8993;51.822;-2.268;2023-09-19T04:17:13;20.61;;;2.00;;
17741;SDS011;8993;51.822;-2.268;2023-09-19T04:22:17;15.73;;;1.71;;
17741;SDS011;8993;51.822;-2.268;2023-09-19T04:27:21;16.85;;;1.60;;
17741;SDS011;8993;51.822;-2.268;2023-09-19T04:32:25;16.52;;;1.61;;
17741;SDS011;8993;51.822;-2.268;2023-09-19T04:37:29;13.67;;;1.42;;
17741;SDS011;8993;51.822;-2.268;2023-09-19T04:42:33;13.61;;;1.44;;
17741;SDS011;8993;51.822;-2.268;2023-09-19T04:47:37;15.90;;;1.39;;
17741;SDS011;8993;51.822;-2.268;2023-09-19T04:52:41;11.75;;;1.36;;
17741;SDS011;8993;51.822;-2.268;2023-09-19T04:57:44;13.73;;;1.20;;
17741;SDS011;8993;51.822;-2.268;2023-09-19T05:02:49;10.71;;;1.19;;
17741;SDS011;8993;51.822;-2.268;2023-09-19T05:07:52;9.50;;;0.99;;
17741;SDS011;8993;51.822;-2.268;2023-09-19T05:12:56;9.14;;;0.97;;
17741;SDS011;8993;51.822;-2.268;2023-09-19T05:18:00;11.07;;;1.02;;
17741;SDS011;8993;51.822;-2.268;2023-09-19T05:23:04;9.30;;;1.06;;
17741;SDS011;8993;51.822;-2.268;2023-09-19T05:28:08;7.31;;;1.07;;
17741;SDS011;8993;51.822;-2.268;2023-09-19T05:33:11;10.28;;;1.02;;
17741;SDS011;8993;51.822;-2.268;2023-09-19T05:38:15;8.98;;;0.97;;
17741;SDS011;8993;51.822;-2.268;2023-09-19T05:43:19;10.62;;;1.18;;
17741;SDS011;8993;51.822;-2.268;2023-09-19T05:48:23;11.49;;;1.31;;
17741;SDS011;8993;51.822;-2.268;2023-09-19T05:53:27;8.28;;;1.39;;
17741;SDS011;8993;51.822;-2.268;2023-09-19T05:58:31;11.77;;;1.75;;
17741;SDS011;8993;51.822;-2.268;2023-09-19T06:03:35;13.79;;;1.72;;
17741;SDS011;8993;51.822;-2.268;2023-09-19T06:08:39;12.75;;;1.57;;
17741;SDS011;8993;51.822;-2.268;2023-09-19T06:13:42;9.76;;;1.58;;
17741;SDS011;8993;51.822;-2.268;2023-09-19T06:18:53;11.77;;;1.42;;
17741;SDS011;8993;51.822;-2.268;2023-09-19T06:23:47;9.16;;;1.29;;
17741;SDS011;8993;51.822;-2.268;2023-09-19T06:28:52;13.75;;;1.41;;
17741;SDS011;8993;51.822;-2.268;2023-09-19T06:33:56;15.01;;;1.73;;
17741;SDS011;8993;51.822;-2.268;2023-09-19T06:39:00;13.21;;;2.04;;
17741;SDS011;8993;51.822;-2.268;2023-09-19T06:44:04;16.53;;;2.29;;
17741;SDS011;8993;51.822;-2.268;2023-09-19T06:49:08;17.63;;;2.58;;
17741;SDS011;8993;51.822;-2.268;2023-09-19T06:54:13;16.33;;;2.38;;
17741;SDS011;8993;51.822;-2.268;2023-09-19T06:59:17;19.25;;;3.15;;
17741;SDS011;8993;51.822;-2.268;2023-09-19T07:04:21;20.55;;;2.95;;
17741;SDS011;8993;51.822;-2.268;2023-09-19T07:09:26;20.17;;;3.04;;
17741;SDS011;8993;51.822;-2.268;2023-09-19T07:14:30;20.16;;;3.15;;
17741;SDS011;8993;51.822;-2.268;2023-09-19T07:19:34;19.22;;;3.20;;
17741;SDS011;8993;51.822;-2.268;2023-09-19T07:24:39;19.56;;;3.17;;
17741;SDS011;8993;51.822;-2.268;2023-09-19T07:29:44;22.85;;;3.60;;
17741;SDS011;8993;51.822;-2.268;2023-09-19T07:34:48;23.66;;;3.51;;
17741;SDS011;8993;51.822;-2.268;2023-09-19T07:39:52;23.14;;;3.78;;
17741;SDS011;8993;51.822;-2.268;2023-09-19T07:44:56;22.11;;;4.10;;
17741;SDS011;8993;51.822;-2.268;2023-09-19T07:50:01;21.59;;;3.75;;
17741;SDS011;8993;51.822;-2.268;2023-09-19T07:55:05;18.53;;;3.44;;
17741;SDS011;8993;51.822;-2.268;2023-09-19T08:00:10;21.11;;;3.94;;
17741;SDS011;8993;51.822;-2.268;2023-09-19T08:05:14;20.88;;;4.04;;
17741;SDS011;8993;51.822;-2.268;2023-09-19T08:10:18;24.72;;;4.04;;
17741;SDS011;8993;51.822;-2.268;2023-09-19T08:15:23;23.95;;;4.28;;
17741;SDS011;8993;51.822;-2.268;2023-09-19T08:20:27;26.87;;;4.30;;
17741;SDS011;8993;51.822;-2.268;2023-09-19T08:25:31;23.19;;;4.43;;
17741;SDS011;8993;51.822;-2.268;2023-09-19T08:30:35;23.68;;;4.36;;
17741;SDS011;8993;51.822;-2.268;2023-09-19T08:35:40;27.27;;;4.71;;
17741;SDS011;8993;51.822;-2.268;2023-09-19T08:40:44;26.76;;;4.62;;
17741;SDS011;8993;51.822;-2.268;2023-09-19T08:45:48;26.66;;;4.50;;
17741;SDS011;8993;51.822;-2.268;2023-09-19T08:50:55;24.02;;;4.30;;
17741;SDS011;8993;51.822;-2.268;2023-09-19T08:55:57;23.43;;;3.92;;
17741;SDS011;8993;51.822;-2.268;2023-09-19T09:01:01;24.65;;;3.77;;
17741;SDS011;8993;51.822;-2.268;2023-09-19T09:06:07;19.95;;;3.52;;
17741;SDS011;8993;51.822;-2.268;2023-09-19T09:11:10;21.17;;;3.40;;
17741;SDS011;8993;51.822;-2.268;2023-09-19T09:16:14;18.72;;;3.42;;
17741;SDS011;8993;51.822;-2.268;2023-09-19T09:21:18;17.29;;;3.09;;
17741;SDS011;8993;51.822;-2.268;2023-09-19T09:26:40;18.66;;;3.13;;
17741;SDS011;8993;51.822;-2.268;2023-09-19T09:31:27;15.03;;;3.10;;
17741;SDS011;8993;51.822;-2.268;2023-09-19T09:36:33;16.53;;;3.06;;
17741;SDS011;8993;51.822;-2.268;2023-09-19T09:41:36;19.17;;;2.84;;
17741;SDS011;8993;51.822;-2.268;2023-09-19T09:46:42;14.30;;;2.53;;
17741;SDS011;8993;51.822;-2.268;2023-09-19T09:51:45;14.04;;;2.87;;
17741;SDS011;8993;51.822;-2.268;2023-09-19T09:56:52;12.62;;;2.35;;
17741;SDS011;8993;51.822;-2.268;2023-09-19T10:01:53;13.09;;;2.15;;
17741;SDS011;8993;51.822;-2.268;2023-09-19T10:06:57;12.63;;;2.00;;
17741;SDS011;8993;51.822;-2.268;2023-09-19T10:12:03;12.53;;;2.09;;
17741;SDS011;8993;51.822;-2.268;2023-09-19T10:17:05;13.33;;;2.07;;
17741;SDS011;8993;51.822;-2.268;2023-09-19T10:22:10;13.57;;;1.96;;
17741;SDS011;8993;51.822;-2.268;2023-09-19T10:27:14;11.51;;;1.93;;
17741;SDS011;8993;51.822;-2.268;2023-09-19T10:32:18;9.52;;;1.78;;
17741;SDS011;8993;51.822;-2.268;2023-09-19T10:37:24;9.54;;;1.71;;
17741;SDS011;8993;51.822;-2.268;2023-09-19T10:42:28;8.04;;;1.60;;
17741;SDS011;8993;51.822;-2.268;2023-09-19T10:47:32;7.71;;;1.32;;
17741;SDS011;8993;51.822;-2.268;2023-09-19T10:52:38;7.44;;;1.31;;
17741;SDS011;8993;51.822;-2.268;2023-09-19T10:57:42;7.44;;;1.02;;
17741;SDS011;8993;51.822;-2.268;2023-09-19T11:02:45;4.59;;;0.81;;
17741;SDS011;8993;51.822;-2.268;2023-09-19T11:08:01;6.76;;;0.96;;
17741;SDS011;8993;51.822;-2.268;2023-09-19T11:12:54;3.81;;;0.75;;
17741;SDS011;8993;51.822;-2.268;2023-09-19T11:17:58;3.28;;;0.74;;
17741;SDS011;8993;51.822;-2.268;2023-09-19T11:28:48;3.56;;;0.73;;
17741;SDS011;8993;51.822;-2.268;2023-09-19T11:33:18;5.35;;;0.81;;
17741;SDS011;8993;51.822;-2.268;2023-09-19T11:38:15;3.82;;;0.76;;
17741;SDS011;8993;51.822;-2.268;2023-09-19T11:48:24;4.17;;;0.56;;
17741;SDS011;8993;51.822;-2.268;2023-09-19T11:53:31;3.30;;;0.56;;
17741;SDS011;8993;51.822;-2.268;2023-09-19T11:58:32;2.46;;;0.55;;
17741;SDS011;8993;51.822;-2.268;2023-09-19T12:03:36;3.93;;;0.72;;
17741;SDS011;8993;51.822;-2.268;2023-09-19T12:08:41;4.35;;;0.79;;
17741;SDS011;8993;51.822;-2.268;2023-09-19T12:13:45;8.75;;;1.10;;
17741;SDS011;8993;51.822;-2.268;2023-09-19T12:18:50;9.77;;;1.33;;
17741;SDS011;8993;51.822;-2.268;2023-09-19T12:28:58;19.95;;;2.88;;
17741;SDS011;8993;51.822;-2.268;2023-09-19T12:34:02;25.51;;;3.53;;
17741;SDS011;8993;51.822;-2.268;2023-09-19T12:39:06;23.14;;;3.37;;
17741;SDS011;8993;51.822;-2.268;2023-09-19T12:44:11;22.60;;;2.91;;
17741;SDS011;8993;51.822;-2.268;2023-09-19T12:49:16;20.95;;;2.61;;
17741;SDS011;8993;51.822;-2.268;2023-09-19T12:54:19;18.41;;;2.56;;
17741;SDS011;8993;51.822;-2.268;2023-09-19T12:59:29;18.81;;;2.74;;
17741;SDS011;8993;51.822;-2.268;2023-09-19T13:04:28;18.18;;;2.58;;
17741;SDS011;8993;51.822;-2.268;2023-09-19T13:09:32;19.95;;;2.66;;
17741;SDS011;8993;51.822;-2.268;2023-09-19T13:14:36;21.42;;;3.03;;
17741;SDS011;8993;51.822;-2.268;2023-09-19T13:19:41;19.19;;;2.44;;
17741;SDS011;8993;51.822;-2.268;2023-09-19T13:24:45;18.33;;;2.34;;
17741;SDS011;8993;51.822;-2.268;2023-09-19T13:29:49;16.55;;;2.50;;
17741;SDS011;8993;51.822;-2.268;2023-09-19T13:34:53;20.77;;;2.79;;
17741;SDS011;8993;51.822;-2.268;2023-09-19T13:39:57;24.37;;;3.16;;
17741;SDS011;8993;51.822;-2.268;2023-09-19T13:45:01;22.55;;;3.24;;
17741;SDS011;8993;51.822;-2.268;2023-09-19T13:50:06;21.98;;;3.20;;
17741;SDS011;8993;51.822;-2.268;2023-09-19T13:55:10;22.45;;;3.14;;
17741;SDS011;8993;51.822;-2.268;2023-09-19T14:00:14;21.25;;;2.78;;
17741;SDS011;8993;51.822;-2.268;2023-09-19T14:05:18;19.20;;;2.65;;
17741;SDS011;8993;51.822;-2.268;2023-09-19T14:10:22;21.19;;;2.84;;
17741;SDS011;8993;51.822;-2.268;2023-09-19T14:15:27;18.31;;;2.67;;
17741;SDS011;8993;51.822;-2.268;2023-09-19T14:20:31;16.99;;;2.39;;
17741;SDS011;8993;51.822;-2.268;2023-09-19T14:25:35;18.16;;;2.32;;
17741;SDS011;8993;51.822;-2.268;2023-09-19T14:30:39;25.24;;;3.34;;
17741;SDS011;8993;51.822;-2.268;2023-09-19T14:35:43;23.88;;;3.33;;
17741;SDS011;8993;51.822;-2.268;2023-09-19T14:40:48;21.61;;;3.11;;
17741;SDS011;8993;51.822;-2.268;2023-09-19T14:45:52;20.65;;;2.72;;
17741;SDS011;8993;51.822;-2.268;2023-09-19T14:51:01;23.24;;;3.21;;
17741;SDS011;8993;51.822;-2.268;2023-09-19T14:56:00;19.87;;;2.59;;
17741;SDS011;8993;51.822;-2.268;2023-09-19T15:01:05;12.73;;;1.65;;
17741;SDS011;8993;51.822;-2.268;2023-09-19T15:06:10;10.85;;;1.28;;
17741;SDS011;8993;51.822;-2.268;2023-09-19T15:11:13;11.33;;;1.45;;
17741;SDS011;8993;51.822;-2.268;2023-09-19T15:16:17;9.76;;;1.18;;
17741;SDS011;8993;51.822;-2.268;2023-09-19T15:21:21;10.91;;;1.23;;
17741;SDS011;8993;51.822;-2.268;2023-09-19T15:26:26;13.31;;;1.43;;
17741;SDS011;8993;51.822;-2.268;2023-09-19T15:31:30;10.15;;;1.50;;
17741;SDS011;8993;51.822;-2.268;2023-09-19T15:36:34;11.08;;;1.67;;
17741;SDS011;8993;51.822;-2.268;2023-09-19T15:41:39;14.13;;;1.66;;
17741;SDS011;8993;51.822;-2.268;2023-09-19T15:46:43;17.89;;;2.08;;
17741;SDS011;8993;51.822;-2.268;2023-09-19T15:51:47;14.11;;;2.01;;
17741;SDS011;8993;51.822;-2.268;2023-09-19T15:56:51;12.33;;;1.64;;
17741;SDS011;8993;51.822;-2.268;2023-09-19T16:01:55;10.69;;;1.70;;
17741;SDS011;8993;51.822;-2.268;2023-09-19T16:06:59;12.12;;;1.65;;
17741;SDS011;8993;51.822;-2.268;2023-09-19T16:12:04;11.16;;;1.47;;
17741;SDS011;8993;51.822;-2.268;2023-09-19T16:17:08;9.09;;;1.35;;
17741;SDS011;8993;51.822;-2.268;2023-09-19T16:22:12;12.81;;;1.92;;
17741;SDS011;8993;51.822;-2.268;2023-09-19T16:27:16;16.88;;;2.55;;
17741;SDS011;8993;51.822;-2.268;2023-09-19T16:32:20;20.78;;;3.15;;
17741;SDS011;8993;51.822;-2.268;2023-09-19T16:37:24;22.31;;;3.32;;
17741;SDS011;8993;51.822;-2.268;2023-09-19T16:42:29;21.34;;;3.29;;
17741;SDS011;8993;51.822;-2.268;2023-09-19T16:47:33;18.38;;;2.86;;
17741;SDS011;8993;51.822;-2.268;2023-09-19T16:52:37;17.47;;;2.37;;
17741;SDS011;8993;51.822;-2.268;2023-09-19T16:57:41;16.30;;;2.23;;
17741;SDS011;8993;51.822;-2.268;2023-09-19T17:02:46;17.55;;;2.38;;
17741;SDS011;8993;51.822;-2.268;2023-09-19T17:07:55;17.16;;;2.79;;
17741;SDS011;8993;51.822;-2.268;2023-09-19T17:12:59;19.06;;;2.51;;
17741;SDS011;8993;51.822;-2.268;2023-09-19T17:18:04;18.34;;;2.51;;
17741;SDS011;8993;51.822;-2.268;2023-09-19T17:23:08;22.44;;;3.13;;
17741;SDS011;8993;51.822;-2.268;2023-09-19T17:28:12;19.38;;;2.60;;
17741;SDS011;8993;51.822;-2.268;2023-09-19T17:33:16;21.25;;;3.04;;
17741;SDS011;8993;51.822;-2.268;2023-09-19T17:38:20;23.28;;;3.28;;
17741;SDS011;8993;51.822;-2.268;2023-09-19T17:43:25;20.45;;;3.04;;
17741;SDS011;8993;51.822;-2.268;2023-09-19T17:48:29;27.74;;;4.27;;
17741;SDS011;8993;51.822;-2.268;2023-09-19T17:53:33;22.25;;;3.01;;
17741;SDS011;8993;51.822;-2.268;2023-09-19T17:58:37;19.18;;;2.62;;
17741;SDS011;8993;51.822;-2.268;2023-09-19T18:03:41;15.46;;;2.35;;
17741;SDS011;8993;51.822;-2.268;2023-09-19T18:08:46;18.46;;;2.29;;
17741;SDS011;8993;51.822;-2.268;2023-09-19T18:13:50;15.65;;;1.99;;
17741;SDS011;8993;51.822;-2.268;2023-09-19T18:18:54;11.93;;;1.53;;
17741;SDS011;8993;51.822;-2.268;2023-09-19T18:23:59;10.65;;;1.38;;
17741;SDS011;8993;51.822;-2.268;2023-09-19T18:29:03;11.65;;;1.52;;
17741;SDS011;8993;51.822;-2.268;2023-09-19T18:34:07;10.82;;;1.32;;
17741;SDS011;8993;51.822;-2.268;2023-09-19T18:39:11;9.85;;;1.34;;
17741;SDS011;8993;51.822;-2.268;2023-09-19T18:44:16;10.44;;;1.11;;
17741;SDS011;8993;51.822;-2.268;2023-09-19T18:49:20;8.78;;;1.15;;
17741;SDS011;8993;51.822;-2.268;2023-09-19T18:54:24;9.00;;;1.17;;
17741;SDS011;8993;51.822;-2.268;2023-09-19T18:59:29;10.39;;;1.24;;
17741;SDS011;8993;51.822;-2.268;2023-09-19T19:04:33;11.70;;;1.49;;
17741;SDS011;8993;51.822;-2.268;2023-09-19T19:09:37;10.48;;;1.51;;
17741;SDS011;8993;51.822;-2.268;2023-09-19T19:14:41;8.65;;;1.47;;
17741;SDS011;8993;51.822;-2.268;2023-09-19T19:19:46;10.36;;;1.35;;
17741;SDS011;8993;51.822;-2.268;2023-09-19T19:24:50;7.62;;;0.98;;
17741;SDS011;8993;51.822;-2.268;2023-09-19T19:29:54;6.68;;;0.97;;
17741;SDS011;8993;51.822;-2.268;2023-09-19T19:34:58;8.29;;;0.98;;
17741;SDS011;8993;51.822;-2.268;2023-09-19T19:40:04;5.99;;;0.96;;
17741;SDS011;8993;51.822;-2.268;2023-09-19T19:45:08;9.59;;;1.14;;
17741;SDS011;8993;51.822;-2.268;2023-09-19T19:50:12;8.33;;;1.01;;
17741;SDS011;8993;51.822;-2.268;2023-09-19T19:55:16;7.23;;;0.84;;
17741;SDS011;8993;51.822;-2.268;2023-09-19T20:00:21;5.71;;;0.88;;
17741;SDS011;8993;51.822;-2.268;2023-09-19T20:05:25;7.67;;;1.00;;
17741;SDS011;8993;51.822;-2.268;2023-09-19T20:10:30;8.23;;;0.99;;
17741;SDS011;8993;51.822;-2.268;2023-09-19T20:15:34;6.73;;;0.96;;
17741;SDS011;8993;51.822;-2.268;2023-09-19T20:20:39;7.59;;;1.06;;
17741;SDS011;8993;51.822;-2.268;2023-09-19T20:25:43;10.33;;;1.11;;
17741;SDS011;8993;51.822;-2.268;2023-09-19T20:30:47;5.94;;;0.91;;
17741;SDS011;8993;51.822;-2.268;2023-09-19T20:35:51;5.34;;;0.75;;
17741;SDS011;8993;51.822;-2.268;2023-09-19T20:40:58;5.21;;;0.79;;
17741;SDS011;8993;51.822;-2.268;2023-09-19T20:46:02;5.74;;;0.88;;
17741;SDS011;8993;51.822;-2.268;2023-09-19T20:51:06;6.92;;;1.09;;
17741;SDS011;8993;51.822;-2.268;2023-09-19T20:56:10;5.85;;;1.03;;
17741;SDS011;8993;51.822;-2.268;2023-09-19T21:01:15;7.44;;;1.09;;
17741;SDS011;8993;51.822;-2.268;2023-09-19T21:06:19;6.63;;;1.18;;
17741;SDS011;8993;51.822;-2.268;2023-09-19T21:11:24;7.26;;;1.11;;
17741;SDS011;8993;51.822;-2.268;2023-09-19T21:16:28;9.31;;;1.23;;
17741;SDS011;8993;51.822;-2.268;2023-09-19T21:21:33;8.76;;;1.17;;
17741;SDS011;8993;51.822;-2.268;2023-09-19T21:26:37;5.90;;;1.04;;
17741;SDS011;8993;51.822;-2.268;2023-09-19T21:31:41;8.66;;;1.09;;
17741;SDS011;8993;51.822;-2.268;2023-09-19T21:36:45;6.10;;;1.07;;
17741;SDS011;8993;51.822;-2.268;2023-09-19T21:41:49;6.35;;;0.87;;
17741;SDS011;8993;51.822;-2.268;2023-09-19T21:46:54;4.84;;;1.01;;
17741;SDS011;8993;51.822;-2.268;2023-09-19T21:51:58;4.78;;;1.01;;
17741;SDS011;8993;51.822;-2.268;2023-09-19T21:57:02;4.42;;;0.82;;
17741;SDS011;8993;51.822;-2.268;2023-09-19T22:02:06;7.02;;;0.83;;
17741;SDS011;8993;51.822;-2.268;2023-09-19T22:07:11;4.66;;;0.72;;
17741;SDS011;8993;51.822;-2.268;2023-09-19T22:12:15;2.47;;;0.57;;
17741;SDS011;8993;51.822;-2.268;2023-09-19T22:17:19;1.93;;;0.39;;
17741;SDS011;8993;51.822;-2.268;2023-09-19T22:22:23;1.31;;;0.36;;
17741;SDS011;8993;51.822;-2.268;2023-09-19T22:27:28;2.51;;;0.48;;
17741;SDS011;8993;51.822;-2.268;2023-09-19T22:32:31;3.98;;;0.66;;
17741;SDS011;8993;51.822;-2.268;2023-09-19T22:37:36;4.13;;;0.80;;
17741;SDS011;8993;51.822;-2.268;2023-09-19T22:42:40;6.13;;;0.99;;
17741;SDS011;8993;51.822;-2.268;2023-09-19T22:47:44;5.74;;;1.08;;
17741;SDS011;8993;51.822;-2.268;2023-09-19T22:52:48;7.00;;;1.09;;
17741;SDS011;8993;51.822;-2.268;2023-09-19T22:57:52;9.50;;;1.36;;
17741;SDS011;8993;51.822;-2.268;2023-09-19T23:02:57;7.58;;;1.23;;
17741;SDS011;8993;51.822;-2.268;2023-09-19T23:08:01;8.44;;;1.44;;
17741;SDS011;8993;51.822;-2.268;2023-09-19T23:13:05;9.35;;;1.55;;
17741;SDS011;8993;51.822;-2.268;2023-09-19T23:18:09;9.98;;;1.51;;
17741;SDS011;8993;51.822;-2.268;2023-09-19T23:23:14;7.27;;;1.47;;
17741;SDS011;8993;51.822;-2.268;2023-09-19T23:28:18;9.12;;;1.52;;
17741;SDS011;8993;51.822;-2.268;2023-09-19T23:33:22;8.24;;;1.51;;
17741;SDS011;8993;51.822;-2.268;2023-09-19T23:38:26;7.31;;;1.27;;
17741;SDS011;8993;51.822;-2.268;2023-09-19T23:43:31;7.47;;;1.23;;
17741;SDS011;8993;51.822;-2.268;2023-09-19T23:48:35;7.15;;;1.42;;
17741;SDS011;8993;51.822;-2.268;2023-09-19T23:53:39;7.55;;;1.40;;
17741;SDS011;8993;51.822;-2.268;2023-09-19T23:58:44;7.32;;;1.21;;
